sensor_id;sensor_type;location;lat;lon;timestamp;P1;durP1;ratioP1;P2;durP2;ratioP2
39848;SDS011;25518;47.878;15.914;2023-06-10T00:01:16;5.68;;;3.20;;
39848;SDS011;25518;47.878;15.914;2023-06-10T00:04:05;6.25;;;3.83;;
39848;SDS011;25518;47.878;15.914;2023-06-10T00:06:55;4.88;;;3.17;;
39848;SDS011;25518;47.878;15.914;2023-06-10T00:09:46;6.45;;;3.70;;
39848;SDS011;25518;47.878;15.914;2023-06-10T00:12:35;7.22;;;3.55;;
39848;SDS011;25518;47.878;15.914;2023-06-10T00:15:26;10.52;;;3.58;;
39848;SDS011;25518;47.878;15.914;2023-06-10T00:18:16;8.15;;;3.92;;
39848;SDS011;25518;47.878;15.914;2023-06-10T00:21:06;6.63;;;3.47;;
39848;SDS011;25518;47.878;15.914;2023-06-10T00:23:55;7.33;;;3.10;;
39848;SDS011;25518;47.878;15.914;2023-06-10T00:26:45;5.72;;;3.22;;
39848;SDS011;25518;47.878;15.914;2023-06-10T00:29:35;5.57;;;3.28;;
39848;SDS011;25518;47.878;15.914;2023-06-10T00:32:24;7.38;;;3.05;;
39848;SDS011;25518;47.878;15.914;2023-06-10T00:35:14;4.28;;;2.75;;
39848;SDS011;25518;47.878;15.914;2023-06-10T00:38:04;5.03;;;3.35;;
39848;SDS011;25518;47.878;15.914;2023-06-10T00:40:53;5.20;;;3.30;;
39848;SDS011;25518;47.878;15.914;2023-06-10T00:43:43;4.85;;;3.40;;
39848;SDS011;25518;47.878;15.914;2023-06-10T00:46:33;4.68;;;3.08;;
39848;SDS011;25518;47.878;15.914;2023-06-10T00:49:24;6.07;;;3.50;;
39848;SDS011;25518;47.878;15.914;2023-06-10T00:52:14;5.05;;;3.30;;
39848;SDS011;25518;47.878;15.914;2023-06-10T00:55:05;4.68;;;3.00;;
39848;SDS011;25518;47.878;15.914;2023-06-10T00:57:56;6.85;;;3.10;;
39848;SDS011;25518;47.878;15.914;2023-06-10T01:00:46;5.35;;;3.08;;
39848;SDS011;25518;47.878;15.914;2023-06-10T01:03:36;6.03;;;3.20;;
39848;SDS011;25518;47.878;15.914;2023-06-10T01:15:48;4.90;;;3.35;;
39848;SDS011;25518;47.878;15.914;2023-06-10T01:18:40;4.95;;;3.05;;
39848;SDS011;25518;47.878;15.914;2023-06-10T01:21:31;4.88;;;3.00;;
39848;SDS011;25518;47.878;15.914;2023-06-10T01:24:21;4.53;;;3.03;;
39848;SDS011;25518;47.878;15.914;2023-06-10T01:27:12;5.43;;;3.28;;
39848;SDS011;25518;47.878;15.914;2023-06-10T01:30:05;5.57;;;2.93;;
39848;SDS011;25518;47.878;15.914;2023-06-10T01:33:00;5.88;;;3.28;;
39848;SDS011;25518;47.878;15.914;2023-06-10T01:35:51;6.87;;;3.30;;
39848;SDS011;25518;47.878;15.914;2023-06-10T01:38:43;6.63;;;3.10;;
39848;SDS011;25518;47.878;15.914;2023-06-10T01:41:34;4.68;;;3.05;;
39848;SDS011;25518;47.878;15.914;2023-06-10T01:44:26;4.95;;;2.95;;
39848;SDS011;25518;47.878;15.914;2023-06-10T01:47:15;6.50;;;3.42;;
39848;SDS011;25518;47.878;15.914;2023-06-10T01:50:06;6.10;;;2.70;;
39848;SDS011;25518;47.878;15.914;2023-06-10T01:52:56;5.50;;;3.42;;
39848;SDS011;25518;47.878;15.914;2023-06-10T01:55:47;5.05;;;2.95;;
39848;SDS011;25518;47.878;15.914;2023-06-10T01:58:36;5.03;;;2.85;;
39848;SDS011;25518;47.878;15.914;2023-06-10T02:01:26;4.22;;;2.97;;
39848;SDS011;25518;47.878;15.914;2023-06-10T02:04:16;4.45;;;2.95;;
39848;SDS011;25518;47.878;15.914;2023-06-10T02:07:06;4.50;;;3.00;;
39848;SDS011;25518;47.878;15.914;2023-06-10T02:09:56;4.90;;;3.20;;
39848;SDS011;25518;47.878;15.914;2023-06-10T02:12:46;5.57;;;3.20;;
39848;SDS011;25518;47.878;15.914;2023-06-10T02:15:35;5.43;;;3.00;;
39848;SDS011;25518;47.878;15.914;2023-06-10T02:18:25;4.95;;;3.10;;
39848;SDS011;25518;47.878;15.914;2023-06-10T02:21:15;4.77;;;2.83;;
39848;SDS011;25518;47.878;15.914;2023-06-10T02:24:05;4.60;;;2.90;;
39848;SDS011;25518;47.878;15.914;2023-06-10T02:26:55;6.15;;;3.30;;
39848;SDS011;25518;47.878;15.914;2023-06-10T02:29:45;8.15;;;2.92;;
39848;SDS011;25518;47.878;15.914;2023-06-10T02:32:35;4.53;;;2.85;;
39848;SDS011;25518;47.878;15.914;2023-06-10T02:35:24;6.37;;;3.13;;
39848;SDS011;25518;47.878;15.914;2023-06-10T02:38:14;4.93;;;3.10;;
39848;SDS011;25518;47.878;15.914;2023-06-10T02:41:03;7.10;;;3.15;;
39848;SDS011;25518;47.878;15.914;2023-06-10T02:43:53;4.88;;;3.15;;
39848;SDS011;25518;47.878;15.914;2023-06-10T02:46:42;4.60;;;3.25;;
39848;SDS011;25518;47.878;15.914;2023-06-10T02:49:32;5.38;;;3.10;;
39848;SDS011;25518;47.878;15.914;2023-06-10T02:52:22;4.68;;;3.05;;
39848;SDS011;25518;47.878;15.914;2023-06-10T02:55:12;5.63;;;3.40;;
39848;SDS011;25518;47.878;15.914;2023-06-10T02:58:02;4.40;;;3.03;;
39848;SDS011;25518;47.878;15.914;2023-06-10T03:00:51;5.32;;;3.70;;
39848;SDS011;25518;47.878;15.914;2023-06-10T03:20:36;6.13;;;3.05;;
39848;SDS011;25518;47.878;15.914;2023-06-10T03:23:26;5.18;;;3.22;;
39848;SDS011;25518;47.878;15.914;2023-06-10T03:26:16;6.72;;;3.45;;
39848;SDS011;25518;47.878;15.914;2023-06-10T03:29:05;5.60;;;2.95;;
39848;SDS011;25518;47.878;15.914;2023-06-10T03:31:55;5.57;;;3.30;;
39848;SDS011;25518;47.878;15.914;2023-06-10T03:34:45;5.15;;;3.42;;
39848;SDS011;25518;47.878;15.914;2023-06-10T03:37:36;6.13;;;3.30;;
39848;SDS011;25518;47.878;15.914;2023-06-10T03:40:25;6.15;;;2.90;;
39848;SDS011;25518;47.878;15.914;2023-06-10T03:43:15;6.82;;;3.53;;
39848;SDS011;25518;47.878;15.914;2023-06-10T03:46:05;5.38;;;3.00;;
39848;SDS011;25518;47.878;15.914;2023-06-10T03:48:54;5.72;;;3.47;;
39848;SDS011;25518;47.878;15.914;2023-06-10T03:51:45;5.33;;;3.10;;
39848;SDS011;25518;47.878;15.914;2023-06-10T03:54:34;5.40;;;3.00;;
39848;SDS011;25518;47.878;15.914;2023-06-10T03:57:24;5.75;;;2.85;;
39848;SDS011;25518;47.878;15.914;2023-06-10T04:00:15;5.80;;;3.50;;
39848;SDS011;25518;47.878;15.914;2023-06-10T04:03:06;5.13;;;3.60;;
39848;SDS011;25518;47.878;15.914;2023-06-10T04:05:58;7.57;;;3.70;;
39848;SDS011;25518;47.878;15.914;2023-06-10T04:08:47;5.15;;;3.60;;
39848;SDS011;25518;47.878;15.914;2023-06-10T04:11:37;4.93;;;3.20;;
39848;SDS011;25518;47.878;15.914;2023-06-10T04:14:26;7.50;;;3.65;;
39848;SDS011;25518;47.878;15.914;2023-06-10T04:17:16;5.57;;;3.50;;
39848;SDS011;25518;47.878;15.914;2023-06-10T04:20:06;5.47;;;3.40;;
39848;SDS011;25518;47.878;15.914;2023-06-10T04:22:56;5.35;;;3.47;;
39848;SDS011;25518;47.878;15.914;2023-06-10T04:25:46;4.53;;;3.15;;
39848;SDS011;25518;47.878;15.914;2023-06-10T04:28:36;5.70;;;3.40;;
39848;SDS011;25518;47.878;15.914;2023-06-10T04:31:26;4.30;;;3.10;;
39848;SDS011;25518;47.878;15.914;2023-06-10T04:34:16;5.30;;;3.20;;
39848;SDS011;25518;47.878;15.914;2023-06-10T04:37:06;4.60;;;2.88;;
39848;SDS011;25518;47.878;15.914;2023-06-10T04:39:56;4.80;;;3.07;;
39848;SDS011;25518;47.878;15.914;2023-06-10T04:42:45;5.70;;;3.28;;
39848;SDS011;25518;47.878;15.914;2023-06-10T04:45:35;5.50;;;2.60;;
39848;SDS011;25518;47.878;15.914;2023-06-10T04:48:25;4.60;;;2.90;;
39848;SDS011;25518;47.878;15.914;2023-06-10T04:51:15;5.30;;;3.35;;
39848;SDS011;25518;47.878;15.914;2023-06-10T04:54:05;4.72;;;2.85;;
39848;SDS011;25518;47.878;15.914;2023-06-10T04:56:55;4.68;;;3.22;;
39848;SDS011;25518;47.878;15.914;2023-06-10T04:59:45;5.07;;;2.97;;
39848;SDS011;25518;47.878;15.914;2023-06-10T05:02:34;4.75;;;3.00;;
39848;SDS011;25518;47.878;15.914;2023-06-10T05:05:24;6.13;;;3.25;;
39848;SDS011;25518;47.878;15.914;2023-06-10T05:08:14;4.38;;;2.78;;
39848;SDS011;25518;47.878;15.914;2023-06-10T05:11:03;5.28;;;3.13;;
39848;SDS011;25518;47.878;15.914;2023-06-10T05:13:53;5.10;;;3.45;;
39848;SDS011;25518;47.878;15.914;2023-06-10T05:16:43;5.25;;;3.00;;
39848;SDS011;25518;47.878;15.914;2023-06-10T05:19:32;5.18;;;2.92;;
39848;SDS011;25518;47.878;15.914;2023-06-10T05:22:24;4.15;;;2.75;;
39848;SDS011;25518;47.878;15.914;2023-06-10T05:25:14;4.72;;;3.00;;
39848;SDS011;25518;47.878;15.914;2023-06-10T05:28:03;4.70;;;3.08;;
39848;SDS011;25518;47.878;15.914;2023-06-10T05:30:53;4.47;;;2.88;;
39848;SDS011;25518;47.878;15.914;2023-06-10T05:33:42;4.80;;;3.30;;
39848;SDS011;25518;47.878;15.914;2023-06-10T05:36:32;4.90;;;3.33;;
39848;SDS011;25518;47.878;15.914;2023-06-10T05:39:22;6.13;;;3.30;;
39848;SDS011;25518;47.878;15.914;2023-06-10T05:42:12;4.28;;;2.90;;
39848;SDS011;25518;47.878;15.914;2023-06-10T05:45:01;5.82;;;2.63;;
39848;SDS011;25518;47.878;15.914;2023-06-10T05:47:52;4.90;;;2.90;;
39848;SDS011;25518;47.878;15.914;2023-06-10T05:50:41;4.05;;;2.40;;
39848;SDS011;25518;47.878;15.914;2023-06-10T05:53:33;4.95;;;2.70;;
39848;SDS011;25518;47.878;15.914;2023-06-10T05:56:23;5.03;;;2.92;;
39848;SDS011;25518;47.878;15.914;2023-06-10T05:59:14;4.00;;;2.67;;
39848;SDS011;25518;47.878;15.914;2023-06-10T06:02:04;4.20;;;2.90;;
39848;SDS011;25518;47.878;15.914;2023-06-10T06:04:54;4.35;;;2.90;;
39848;SDS011;25518;47.878;15.914;2023-06-10T06:07:44;5.68;;;3.47;;
39848;SDS011;25518;47.878;15.914;2023-06-10T06:10:34;4.07;;;2.63;;
39848;SDS011;25518;47.878;15.914;2023-06-10T06:13:24;5.95;;;3.40;;
39848;SDS011;25518;47.878;15.914;2023-06-10T06:16:14;4.15;;;2.97;;
39848;SDS011;25518;47.878;15.914;2023-06-10T06:19:04;8.55;;;3.70;;
39848;SDS011;25518;47.878;15.914;2023-06-10T06:21:53;6.57;;;3.80;;
39848;SDS011;25518;47.878;15.914;2023-06-10T06:24:43;4.28;;;2.97;;
39848;SDS011;25518;47.878;15.914;2023-06-10T06:27:32;5.70;;;3.17;;
39848;SDS011;25518;47.878;15.914;2023-06-10T06:30:22;4.45;;;2.97;;
39848;SDS011;25518;47.878;15.914;2023-06-10T06:33:12;5.07;;;3.10;;
39848;SDS011;25518;47.878;15.914;2023-06-10T06:36:02;6.82;;;3.20;;
39848;SDS011;25518;47.878;15.914;2023-06-10T06:38:52;8.02;;;3.33;;
39848;SDS011;25518;47.878;15.914;2023-06-10T06:41:42;6.83;;;3.27;;
39848;SDS011;25518;47.878;15.914;2023-06-10T06:44:31;5.50;;;3.45;;
39848;SDS011;25518;47.878;15.914;2023-06-10T06:47:21;6.47;;;3.55;;
39848;SDS011;25518;47.878;15.914;2023-06-10T06:50:10;5.60;;;3.50;;
39848;SDS011;25518;47.878;15.914;2023-06-10T06:53:00;5.93;;;3.90;;
39848;SDS011;25518;47.878;15.914;2023-06-10T06:55:50;6.80;;;3.80;;
39848;SDS011;25518;47.878;15.914;2023-06-10T06:58:40;6.80;;;4.40;;
39848;SDS011;25518;47.878;15.914;2023-06-10T07:01:33;5.47;;;4.10;;
39848;SDS011;25518;47.878;15.914;2023-06-10T07:04:23;7.32;;;3.90;;
39848;SDS011;25518;47.878;15.914;2023-06-10T07:07:13;5.93;;;4.20;;
39848;SDS011;25518;47.878;15.914;2023-06-10T07:10:03;6.78;;;4.10;;
39848;SDS011;25518;47.878;15.914;2023-06-10T07:12:53;6.32;;;4.55;;
39848;SDS011;25518;47.878;15.914;2023-06-10T07:15:43;5.35;;;4.13;;
39848;SDS011;25518;47.878;15.914;2023-06-10T07:18:33;6.47;;;4.55;;
39848;SDS011;25518;47.878;15.914;2023-06-10T07:21:23;7.20;;;4.40;;
39848;SDS011;25518;47.878;15.914;2023-06-10T07:24:13;7.65;;;4.10;;
39848;SDS011;25518;47.878;15.914;2023-06-10T07:27:02;7.25;;;4.20;;
39848;SDS011;25518;47.878;15.914;2023-06-10T07:29:52;7.90;;;4.87;;
39848;SDS011;25518;47.878;15.914;2023-06-10T07:32:42;8.20;;;4.95;;
39848;SDS011;25518;47.878;15.914;2023-06-10T07:35:32;5.75;;;4.25;;
39848;SDS011;25518;47.878;15.914;2023-06-10T07:38:22;6.30;;;4.30;;
39848;SDS011;25518;47.878;15.914;2023-06-10T07:41:11;7.13;;;4.90;;
39848;SDS011;25518;47.878;15.914;2023-06-10T07:44:01;7.82;;;4.40;;
39848;SDS011;25518;47.878;15.914;2023-06-10T07:46:51;6.15;;;4.25;;
39848;SDS011;25518;47.878;15.914;2023-06-10T07:49:40;6.40;;;4.20;;
39848;SDS011;25518;47.878;15.914;2023-06-10T07:52:30;7.03;;;5.05;;
39848;SDS011;25518;47.878;15.914;2023-06-10T07:55:20;7.97;;;5.25;;
39848;SDS011;25518;47.878;15.914;2023-06-10T07:58:09;8.15;;;5.35;;
39848;SDS011;25518;47.878;15.914;2023-06-10T08:00:59;6.75;;;5.10;;
39848;SDS011;25518;47.878;15.914;2023-06-10T08:03:49;6.95;;;5.18;;
39848;SDS011;25518;47.878;15.914;2023-06-10T08:06:39;7.32;;;4.85;;
39848;SDS011;25518;47.878;15.914;2023-06-10T08:09:29;8.18;;;4.78;;
39848;SDS011;25518;47.878;15.914;2023-06-10T08:12:18;6.70;;;4.72;;
39848;SDS011;25518;47.878;15.914;2023-06-10T08:15:09;7.82;;;5.20;;
39848;SDS011;25518;47.878;15.914;2023-06-10T08:17:58;7.70;;;5.07;;
39848;SDS011;25518;47.878;15.914;2023-06-10T08:20:48;6.68;;;4.88;;
39848;SDS011;25518;47.878;15.914;2023-06-10T08:23:38;6.60;;;4.68;;
39848;SDS011;25518;47.878;15.914;2023-06-10T08:26:28;7.40;;;5.20;;
39848;SDS011;25518;47.878;15.914;2023-06-10T08:29:17;7.97;;;5.28;;
39848;SDS011;25518;47.878;15.914;2023-06-10T08:32:07;7.22;;;5.15;;
39848;SDS011;25518;47.878;15.914;2023-06-10T08:34:56;6.93;;;5.13;;
39848;SDS011;25518;47.878;15.914;2023-06-10T08:37:46;6.97;;;5.20;;
39848;SDS011;25518;47.878;15.914;2023-06-10T08:40:36;7.60;;;5.60;;
39848;SDS011;25518;47.878;15.914;2023-06-10T08:46:16;7.40;;;5.35;;
39848;SDS011;25518;47.878;15.914;2023-06-10T08:49:06;9.23;;;5.00;;
39848;SDS011;25518;47.878;15.914;2023-06-10T08:51:58;8.75;;;5.40;;
39848;SDS011;25518;47.878;15.914;2023-06-10T08:55:23;7.93;;;5.43;;
39848;SDS011;25518;47.878;15.914;2023-06-10T08:58:03;7.82;;;5.30;;
39848;SDS011;25518;47.878;15.914;2023-06-10T09:00:53;7.43;;;4.72;;
39848;SDS011;25518;47.878;15.914;2023-06-10T09:03:44;8.23;;;5.18;;
39848;SDS011;25518;47.878;15.914;2023-06-10T09:06:33;6.75;;;5.00;;
39848;SDS011;25518;47.878;15.914;2023-06-10T09:09:25;7.18;;;5.13;;
39848;SDS011;25518;47.878;15.914;2023-06-10T09:12:19;7.00;;;5.18;;
39848;SDS011;25518;47.878;15.914;2023-06-10T09:15:09;6.80;;;5.13;;
39848;SDS011;25518;47.878;15.914;2023-06-10T09:18:00;7.17;;;5.00;;
39848;SDS011;25518;47.878;15.914;2023-06-10T09:20:50;7.13;;;5.15;;
39848;SDS011;25518;47.878;15.914;2023-06-10T09:23:40;8.10;;;5.63;;
39848;SDS011;25518;47.878;15.914;2023-06-10T09:26:31;8.65;;;5.40;;
39848;SDS011;25518;47.878;15.914;2023-06-10T09:29:21;8.07;;;5.25;;
39848;SDS011;25518;47.878;15.914;2023-06-10T09:32:10;7.82;;;5.22;;
39848;SDS011;25518;47.878;15.914;2023-06-10T09:35:01;7.63;;;5.22;;
39848;SDS011;25518;47.878;15.914;2023-06-10T09:37:59;8.40;;;5.35;;
39848;SDS011;25518;47.878;15.914;2023-06-10T09:40:50;7.68;;;5.38;;
39848;SDS011;25518;47.878;15.914;2023-06-10T09:43:41;7.75;;;5.07;;
39848;SDS011;25518;47.878;15.914;2023-06-10T09:46:33;7.78;;;4.85;;
39848;SDS011;25518;47.878;15.914;2023-06-10T09:49:23;7.53;;;5.22;;
39848;SDS011;25518;47.878;15.914;2023-06-10T09:52:23;8.43;;;5.33;;
39848;SDS011;25518;47.878;15.914;2023-06-10T09:55:13;8.60;;;4.63;;
39848;SDS011;25518;47.878;15.914;2023-06-10T09:58:03;8.30;;;5.85;;
39848;SDS011;25518;47.878;15.914;2023-06-10T10:00:53;10.43;;;5.78;;
39848;SDS011;25518;47.878;15.914;2023-06-10T10:03:44;8.75;;;5.70;;
39848;SDS011;25518;47.878;15.914;2023-06-10T10:06:35;7.67;;;5.77;;
39848;SDS011;25518;47.878;15.914;2023-06-10T10:09:26;10.20;;;6.43;;
39848;SDS011;25518;47.878;15.914;2023-06-10T10:12:16;8.68;;;6.22;;
39848;SDS011;25518;47.878;15.914;2023-06-10T10:15:07;9.32;;;6.43;;
39848;SDS011;25518;47.878;15.914;2023-06-10T10:18:00;11.00;;;6.77;;
39848;SDS011;25518;47.878;15.914;2023-06-10T10:20:57;9.48;;;6.85;;
39848;SDS011;25518;47.878;15.914;2023-06-10T10:24:05;9.70;;;7.05;;
39848;SDS011;25518;47.878;15.914;2023-06-10T10:27:07;9.87;;;7.20;;
39848;SDS011;25518;47.878;15.914;2023-06-10T10:30:06;10.68;;;7.00;;
39848;SDS011;25518;47.878;15.914;2023-06-10T10:35:54;12.03;;;7.60;;
39848;SDS011;25518;47.878;15.914;2023-06-10T10:38:44;11.52;;;7.90;;
39848;SDS011;25518;47.878;15.914;2023-06-10T10:41:37;10.50;;;7.60;;
39848;SDS011;25518;47.878;15.914;2023-06-10T10:44:28;10.47;;;7.33;;
39848;SDS011;25518;47.878;15.914;2023-06-10T10:47:19;11.13;;;7.30;;
39848;SDS011;25518;47.878;15.914;2023-06-10T10:50:14;10.35;;;6.93;;
39848;SDS011;25518;47.878;15.914;2023-06-10T10:53:05;11.75;;;7.75;;
39848;SDS011;25518;47.878;15.914;2023-06-10T10:56:03;11.45;;;7.07;;
39848;SDS011;25518;47.878;15.914;2023-06-10T10:59:03;10.77;;;7.10;;
39848;SDS011;25518;47.878;15.914;2023-06-10T11:01:55;10.45;;;7.25;;
39848;SDS011;25518;47.878;15.914;2023-06-10T11:04:47;10.63;;;6.95;;
39848;SDS011;25518;47.878;15.914;2023-06-10T11:07:37;10.35;;;6.53;;
39848;SDS011;25518;47.878;15.914;2023-06-10T11:10:35;10.27;;;7.07;;
39848;SDS011;25518;47.878;15.914;2023-06-10T11:13:27;9.30;;;6.88;;
39848;SDS011;25518;47.878;15.914;2023-06-10T11:16:19;9.65;;;6.40;;
39848;SDS011;25518;47.878;15.914;2023-06-10T11:19:09;10.20;;;6.57;;
39848;SDS011;25518;47.878;15.914;2023-06-10T11:21:59;8.55;;;5.90;;
39848;SDS011;25518;47.878;15.914;2023-06-10T11:24:50;10.93;;;7.00;;
39848;SDS011;25518;47.878;15.914;2023-06-10T11:27:40;10.07;;;6.77;;
39848;SDS011;25518;47.878;15.914;2023-06-10T11:30:32;10.27;;;6.10;;
39848;SDS011;25518;47.878;15.914;2023-06-10T11:33:24;7.78;;;5.93;;
39848;SDS011;25518;47.878;15.914;2023-06-10T11:36:14;8.90;;;6.47;;
39848;SDS011;25518;47.878;15.914;2023-06-10T11:39:04;10.50;;;7.05;;
39848;SDS011;25518;47.878;15.914;2023-06-10T11:41:55;9.13;;;6.05;;
39848;SDS011;25518;47.878;15.914;2023-06-10T11:44:52;10.18;;;6.03;;
39848;SDS011;25518;47.878;15.914;2023-06-10T11:47:55;8.02;;;4.97;;
39848;SDS011;25518;47.878;15.914;2023-06-10T11:50:46;8.50;;;5.70;;
39848;SDS011;25518;47.878;15.914;2023-06-10T11:53:36;6.93;;;5.07;;
39848;SDS011;25518;47.878;15.914;2023-06-10T11:56:26;8.73;;;5.25;;
39848;SDS011;25518;47.878;15.914;2023-06-10T11:59:16;10.03;;;5.60;;
39848;SDS011;25518;47.878;15.914;2023-06-10T12:02:07;7.70;;;5.05;;
39848;SDS011;25518;47.878;15.914;2023-06-10T12:05:12;7.10;;;5.03;;
39848;SDS011;25518;47.878;15.914;2023-06-10T12:08:07;7.55;;;5.05;;
39848;SDS011;25518;47.878;15.914;2023-06-10T12:10:59;7.15;;;4.72;;
39848;SDS011;25518;47.878;15.914;2023-06-10T12:13:49;8.98;;;5.03;;
39848;SDS011;25518;47.878;15.914;2023-06-10T12:16:39;7.57;;;4.53;;
39848;SDS011;25518;47.878;15.914;2023-06-10T12:19:29;6.05;;;4.72;;
39848;SDS011;25518;47.878;15.914;2023-06-10T12:22:18;7.07;;;4.97;;
39848;SDS011;25518;47.878;15.914;2023-06-10T12:25:09;6.50;;;4.70;;
39848;SDS011;25518;47.878;15.914;2023-06-10T12:27:59;6.60;;;5.03;;
39848;SDS011;25518;47.878;15.914;2023-06-10T12:30:49;6.75;;;4.78;;
39848;SDS011;25518;47.878;15.914;2023-06-10T12:33:40;6.38;;;4.50;;
39848;SDS011;25518;47.878;15.914;2023-06-10T12:36:30;6.30;;;4.70;;
39848;SDS011;25518;47.878;15.914;2023-06-10T12:39:21;8.73;;;5.10;;
39848;SDS011;25518;47.878;15.914;2023-06-10T12:42:12;7.00;;;4.70;;
39848;SDS011;25518;47.878;15.914;2023-06-10T12:45:02;8.10;;;4.47;;
39848;SDS011;25518;47.878;15.914;2023-06-10T12:47:52;7.90;;;5.10;;
39848;SDS011;25518;47.878;15.914;2023-06-10T12:50:41;6.50;;;4.60;;
39848;SDS011;25518;47.878;15.914;2023-06-10T12:53:32;9.37;;;5.40;;
39848;SDS011;25518;47.878;15.914;2023-06-10T12:56:22;5.93;;;4.03;;
39848;SDS011;25518;47.878;15.914;2023-06-10T12:59:12;6.88;;;4.63;;
39848;SDS011;25518;47.878;15.914;2023-06-10T13:02:03;6.57;;;4.50;;
39848;SDS011;25518;47.878;15.914;2023-06-10T13:04:53;6.03;;;4.80;;
39848;SDS011;25518;47.878;15.914;2023-06-10T13:07:43;7.50;;;5.00;;
39848;SDS011;25518;47.878;15.914;2023-06-10T13:10:33;10.33;;;5.50;;
39848;SDS011;25518;47.878;15.914;2023-06-10T13:13:23;7.93;;;5.43;;
39848;SDS011;25518;47.878;15.914;2023-06-10T13:16:14;10.00;;;6.65;;
39848;SDS011;25518;47.878;15.914;2023-06-10T13:19:05;9.57;;;6.03;;
39848;SDS011;25518;47.878;15.914;2023-06-10T13:21:54;8.65;;;5.97;;
39848;SDS011;25518;47.878;15.914;2023-06-10T13:24:44;7.72;;;5.57;;
39848;SDS011;25518;47.878;15.914;2023-06-10T13:27:35;9.48;;;6.32;;
39848;SDS011;25518;47.878;15.914;2023-06-10T13:30:30;10.10;;;6.60;;
39848;SDS011;25518;47.878;15.914;2023-06-10T13:33:20;11.20;;;6.30;;
39848;SDS011;25518;47.878;15.914;2023-06-10T13:36:10;10.43;;;6.32;;
39848;SDS011;25518;47.878;15.914;2023-06-10T13:39:01;9.02;;;6.18;;
39848;SDS011;25518;47.878;15.914;2023-06-10T13:41:51;9.52;;;6.68;;
39848;SDS011;25518;47.878;15.914;2023-06-10T13:44:40;9.60;;;6.53;;
39848;SDS011;25518;47.878;15.914;2023-06-10T13:47:30;9.23;;;6.72;;
39848;SDS011;25518;47.878;15.914;2023-06-10T13:50:20;9.87;;;6.50;;
39848;SDS011;25518;47.878;15.914;2023-06-10T13:53:10;9.68;;;6.05;;
39848;SDS011;25518;47.878;15.914;2023-06-10T13:55:59;9.60;;;6.50;;
39848;SDS011;25518;47.878;15.914;2023-06-10T13:58:49;9.20;;;6.25;;
39848;SDS011;25518;47.878;15.914;2023-06-10T14:01:38;10.48;;;6.40;;
39848;SDS011;25518;47.878;15.914;2023-06-10T14:04:29;8.67;;;6.23;;
39848;SDS011;25518;47.878;15.914;2023-06-10T14:07:19;8.80;;;6.28;;
39848;SDS011;25518;47.878;15.914;2023-06-10T14:10:08;8.02;;;5.63;;
39848;SDS011;25518;47.878;15.914;2023-06-10T14:12:59;8.55;;;5.78;;
39848;SDS011;25518;47.878;15.914;2023-06-10T14:15:49;7.85;;;5.65;;
39848;SDS011;25518;47.878;15.914;2023-06-10T14:18:39;7.15;;;4.95;;
39848;SDS011;25518;47.878;15.914;2023-06-10T14:21:28;6.53;;;4.65;;
39848;SDS011;25518;47.878;15.914;2023-06-10T14:24:18;7.10;;;4.38;;
39848;SDS011;25518;47.878;15.914;2023-06-10T14:27:07;7.13;;;4.70;;
39848;SDS011;25518;47.878;15.914;2023-06-10T14:29:57;7.60;;;4.70;;
39848;SDS011;25518;47.878;15.914;2023-06-10T14:32:47;8.35;;;4.70;;
39848;SDS011;25518;47.878;15.914;2023-06-10T14:35:36;6.90;;;5.00;;
39848;SDS011;25518;47.878;15.914;2023-06-10T14:38:26;6.72;;;4.60;;
39848;SDS011;25518;47.878;15.914;2023-06-10T14:41:15;7.03;;;5.03;;
39848;SDS011;25518;47.878;15.914;2023-06-10T14:44:05;8.38;;;4.75;;
39848;SDS011;25518;47.878;15.914;2023-06-10T14:46:55;6.20;;;4.60;;
39848;SDS011;25518;47.878;15.914;2023-06-10T14:49:44;6.57;;;4.53;;
39848;SDS011;25518;47.878;15.914;2023-06-10T14:52:34;7.10;;;4.75;;
39848;SDS011;25518;47.878;15.914;2023-06-10T14:55:23;8.27;;;4.47;;
39848;SDS011;25518;47.878;15.914;2023-06-10T14:58:13;7.60;;;5.07;;
39848;SDS011;25518;47.878;15.914;2023-06-10T15:01:03;9.55;;;5.05;;
39848;SDS011;25518;47.878;15.914;2023-06-10T15:03:53;7.22;;;5.35;;
39848;SDS011;25518;47.878;15.914;2023-06-10T15:06:42;9.25;;;5.07;;
39848;SDS011;25518;47.878;15.914;2023-06-10T15:09:32;8.10;;;4.43;;
39848;SDS011;25518;47.878;15.914;2023-06-10T15:12:21;6.55;;;4.75;;
39848;SDS011;25518;47.878;15.914;2023-06-10T15:15:12;6.07;;;4.28;;
39848;SDS011;25518;47.878;15.914;2023-06-10T15:18:01;6.85;;;4.35;;
39848;SDS011;25518;47.878;15.914;2023-06-10T15:20:51;7.38;;;3.80;;
39848;SDS011;25518;47.878;15.914;2023-06-10T15:23:41;5.28;;;3.90;;
39848;SDS011;25518;47.878;15.914;2023-06-10T15:26:31;5.72;;;4.00;;
39848;SDS011;25518;47.878;15.914;2023-06-10T15:29:20;5.90;;;4.22;;
39848;SDS011;25518;47.878;15.914;2023-06-10T15:32:10;6.88;;;4.15;;
39848;SDS011;25518;47.878;15.914;2023-06-10T15:35:00;5.68;;;3.75;;
39848;SDS011;25518;47.878;15.914;2023-06-10T15:37:49;6.00;;;4.22;;
39848;SDS011;25518;47.878;15.914;2023-06-10T15:40:40;5.82;;;3.83;;
39848;SDS011;25518;47.878;15.914;2023-06-10T15:43:30;6.25;;;3.38;;
39848;SDS011;25518;47.878;15.914;2023-06-10T15:46:20;6.65;;;4.03;;
39848;SDS011;25518;47.878;15.914;2023-06-10T15:49:10;6.82;;;4.00;;
39848;SDS011;25518;47.878;15.914;2023-06-10T15:51:59;6.35;;;3.72;;
39848;SDS011;25518;47.878;15.914;2023-06-10T15:54:49;5.43;;;4.10;;
39848;SDS011;25518;47.878;15.914;2023-06-10T15:57:38;6.25;;;3.70;;
39848;SDS011;25518;47.878;15.914;2023-06-10T16:00:28;7.50;;;4.10;;
39848;SDS011;25518;47.878;15.914;2023-06-10T16:03:17;6.57;;;3.88;;
39848;SDS011;25518;47.878;15.914;2023-06-10T16:06:07;7.20;;;4.20;;
39848;SDS011;25518;47.878;15.914;2023-06-10T16:08:57;6.40;;;3.90;;
39848;SDS011;25518;47.878;15.914;2023-06-10T16:11:49;6.18;;;4.18;;
39848;SDS011;25518;47.878;15.914;2023-06-10T16:14:39;5.50;;;4.00;;
39848;SDS011;25518;47.878;15.914;2023-06-10T16:17:29;5.65;;;4.13;;
39848;SDS011;25518;47.878;15.914;2023-06-10T16:20:18;6.53;;;4.30;;
39848;SDS011;25518;47.878;15.914;2023-06-10T16:23:08;5.80;;;4.22;;
39848;SDS011;25518;47.878;15.914;2023-06-10T16:25:58;6.63;;;4.30;;
39848;SDS011;25518;47.878;15.914;2023-06-10T16:28:48;6.00;;;4.38;;
39848;SDS011;25518;47.878;15.914;2023-06-10T16:31:38;6.60;;;4.50;;
39848;SDS011;25518;47.878;15.914;2023-06-10T16:34:27;7.13;;;4.40;;
39848;SDS011;25518;47.878;15.914;2023-06-10T16:37:17;5.40;;;4.45;;
39848;SDS011;25518;47.878;15.914;2023-06-10T16:40:07;5.97;;;4.30;;
39848;SDS011;25518;47.878;15.914;2023-06-10T16:42:56;7.05;;;4.40;;
39848;SDS011;25518;47.878;15.914;2023-06-10T16:45:46;7.07;;;4.60;;
39848;SDS011;25518;47.878;15.914;2023-06-10T16:48:36;6.25;;;4.28;;
39848;SDS011;25518;47.878;15.914;2023-06-10T16:51:25;6.70;;;4.43;;
39848;SDS011;25518;47.878;15.914;2023-06-10T16:54:15;6.95;;;4.55;;
39848;SDS011;25518;47.878;15.914;2023-06-10T16:57:05;7.22;;;4.20;;
39848;SDS011;25518;47.878;15.914;2023-06-10T16:59:54;6.70;;;4.10;;
39848;SDS011;25518;47.878;15.914;2023-06-10T17:02:44;7.40;;;4.90;;
39848;SDS011;25518;47.878;15.914;2023-06-10T17:05:33;5.85;;;4.35;;
39848;SDS011;25518;47.878;15.914;2023-06-10T17:08:23;6.72;;;4.78;;
39848;SDS011;25518;47.878;15.914;2023-06-10T17:11:13;7.50;;;4.72;;
39848;SDS011;25518;47.878;15.914;2023-06-10T17:14:03;6.20;;;4.40;;
39848;SDS011;25518;47.878;15.914;2023-06-10T17:16:53;6.80;;;4.85;;
39848;SDS011;25518;47.878;15.914;2023-06-10T17:19:42;7.40;;;5.17;;
39848;SDS011;25518;47.878;15.914;2023-06-10T17:22:32;10.27;;;5.40;;